sensor_id;sensor_type;location;lat;lon;timestamp;noise_LAeq;noise_LA_min;noise_LA_max;noise_LA01;noise_LA95
37833;Laerm;23678;48.778;9.160;2023-03-12T00:00:31;37.26;30.89;40.89;;
37833;Laerm;23678;48.778;9.160;2023-03-12T00:02:57;37.07;32.35;43.90;;
37833;Laerm;23678;48.778;9.160;2023-03-12T00:05:22;37.16;30.89;41.89;;
37833;Laerm;23678;48.778;9.160;2023-03-12T00:07:50;39.89;30.89;62.75;;
37833;Laerm;23678;48.778;9.160;2023-03-12T00:10:15;37.13;30.89;40.03;;
37833;Laerm;23678;48.778;9.160;2023-03-12T00:12:40;36.98;31.68;40.33;;
37833;Laerm;23678;48.778;9.160;2023-03-12T00:15:06;37.09;32.35;39.70;;
37833;Laerm;23678;48.778;9.160;2023-03-12T00:17:31;37.82;30.89;44.90;;
37833;Laerm;23678;48.778;9.160;2023-03-12T00:19:57;37.14;31.68;40.89;;
37833;Laerm;23678;48.778;9.160;2023-03-12T00:22:22;38.69;31.68;46.93;;
37833;Laerm;23678;48.778;9.160;2023-03-12T00:24:53;38.11;30.89;42.29;;
37833;Laerm;23678;48.778;9.160;2023-03-12T00:27:19;37.54;32.35;42.29;;
37833;Laerm;23678;48.778;9.160;2023-03-12T00:29:44;38.32;32.35;49.51;;
37833;Laerm;23678;48.778;9.160;2023-03-12T00:32:10;38.30;28.67;46.25;;
37833;Laerm;23678;48.778;9.160;2023-03-12T00:34:35;37.25;30.89;41.96;;
37833;Laerm;23678;48.778;9.160;2023-03-12T00:37:00;37.33;31.68;43.14;;
37833;Laerm;23678;48.778;9.160;2023-03-12T00:39:26;37.06;30.89;39.81;;
37833;Laerm;23678;48.778;9.160;2023-03-12T00:41:51;37.05;26.91;40.62;;
37833;Laerm;23678;48.778;9.160;2023-03-12T00:44:16;37.58;32.35;41.94;;
37833;Laerm;23678;48.778;9.160;2023-03-12T00:46:41;37.90;30.89;46.78;;
37833;Laerm;23678;48.778;9.160;2023-03-12T00:49:07;37.50;32.35;44.15;;
37833;Laerm;23678;48.778;9.160;2023-03-12T00:51:32;36.99;28.67;39.81;;
37833;Laerm;23678;48.778;9.160;2023-03-12T00:53:57;37.12;30.89;40.03;;
37833;Laerm;23678;48.778;9.160;2023-03-12T00:56:23;38.71;30.89;46.15;;
37833;Laerm;23678;48.778;9.160;2023-03-12T00:59:06;37.06;31.68;40.27;;
37833;Laerm;23678;48.778;9.160;2023-03-12T01:01:32;36.96;29.92;41.06;;
37833;Laerm;23678;48.778;9.160;2023-03-12T01:03:57;36.92;30.89;39.70;;
37833;Laerm;23678;48.778;9.160;2023-03-12T01:06:23;37.04;31.68;40.62;;
37833;Laerm;23678;48.778;9.160;2023-03-12T01:08:49;38.65;32.35;51.55;;
37833;Laerm;23678;48.778;9.160;2023-03-12T01:11:16;38.45;31.68;45.77;;
37833;Laerm;23678;48.778;9.160;2023-03-12T01:13:41;37.24;29.92;42.59;;
37833;Laerm;23678;48.778;9.160;2023-03-12T01:16:07;37.22;30.89;42.41;;
37833;Laerm;23678;48.778;9.160;2023-03-12T01:18:32;36.99;30.89;39.92;;
37833;Laerm;23678;48.778;9.160;2023-03-12T01:20:58;37.03;29.92;41.06;;
37833;Laerm;23678;48.778;9.160;2023-03-12T01:26:32;37.15;30.89;42.35;;
37833;Laerm;23678;48.778;9.160;2023-03-12T01:28:57;37.10;28.67;40.03;;
37833;Laerm;23678;48.778;9.160;2023-03-12T01:31:23;38.80;29.92;52.52;;
37833;Laerm;23678;48.778;9.160;2023-03-12T01:33:49;36.97;31.68;39.58;;
37833;Laerm;23678;48.778;9.160;2023-03-12T01:36:18;37.18;31.68;41.38;;
37833;Laerm;23678;48.778;9.160;2023-03-12T01:38:44;37.11;31.68;40.98;;
37833;Laerm;23678;48.778;9.160;2023-03-12T01:41:09;37.06;29.92;41.46;;
37833;Laerm;23678;48.778;9.160;2023-03-12T01:43:36;36.98;30.89;39.81;;
37833;Laerm;23678;48.778;9.160;2023-03-12T01:48:41;37.03;31.68;40.62;;
37833;Laerm;23678;48.778;9.160;2023-03-12T01:51:14;37.16;30.89;42.03;;
37833;Laerm;23678;48.778;9.160;2023-03-12T01:53:40;36.97;31.68;40.33;;
37833;Laerm;23678;48.778;9.160;2023-03-12T01:56:07;36.99;29.92;40.33;;
37833;Laerm;23678;48.778;9.160;2023-03-12T01:58:33;37.98;29.92;44.73;;
37833;Laerm;23678;48.778;9.160;2023-03-12T02:01:01;37.16;31.68;44.39;;
37833;Laerm;23678;48.778;9.160;2023-03-12T02:03:26;36.96;29.92;39.70;;
37833;Laerm;23678;48.778;9.160;2023-03-12T02:05:59;36.90;30.89;40.33;;
37833;Laerm;23678;48.778;9.160;2023-03-12T02:08:26;36.90;29.92;40.13;;
37833;Laerm;23678;48.778;9.160;2023-03-12T02:10:52;37.06;29.92;42.22;;
37833;Laerm;23678;48.778;9.160;2023-03-12T02:13:18;36.90;32.35;39.70;;
37833;Laerm;23678;48.778;9.160;2023-03-12T02:15:43;36.94;29.92;40.03;;
37833;Laerm;23678;48.778;9.160;2023-03-12T02:18:10;37.11;30.89;41.89;;
37833;Laerm;23678;48.778;9.160;2023-03-12T02:20:44;37.06;30.89;41.61;;
37833;Laerm;23678;48.778;9.160;2023-03-12T02:23:27;36.88;28.67;39.92;;
37833;Laerm;23678;48.778;9.160;2023-03-12T02:25:55;36.89;30.89;39.70;;
37833;Laerm;23678;48.778;9.160;2023-03-12T02:28:21;38.07;30.89;49.46;;
37833;Laerm;23678;48.778;9.160;2023-03-12T02:30:49;37.41;32.35;43.24;;
37833;Laerm;23678;48.778;9.160;2023-03-12T02:33:15;36.82;30.54;40.89;;
37833;Laerm;23678;48.778;9.160;2023-03-12T02:35:41;37.02;30.89;41.89;;
37833;Laerm;23678;48.778;9.160;2023-03-12T02:40:50;37.79;30.89;42.29;;
37833;Laerm;23678;48.778;9.160;2023-03-12T02:43:16;37.24;31.68;42.65;;
37833;Laerm;23678;48.778;9.160;2023-03-12T02:45:44;36.97;30.89;41.30;;
37833;Laerm;23678;48.778;9.160;2023-03-12T02:48:09;37.42;32.00;41.68;;
37833;Laerm;23678;48.778;9.160;2023-03-12T02:50:35;36.90;29.92;40.23;;
37833;Laerm;23678;48.778;9.160;2023-03-12T02:53:00;37.64;32.00;46.28;;
37833;Laerm;23678;48.778;9.160;2023-03-12T02:55:26;38.34;31.68;48.67;;
37833;Laerm;23678;48.778;9.160;2023-03-12T02:57:51;37.36;30.89;44.07;;
37833;Laerm;23678;48.778;9.160;2023-03-12T03:00:17;36.93;30.89;40.23;;
37833;Laerm;23678;48.778;9.160;2023-03-12T03:02:42;37.10;28.67;39.81;;
37833;Laerm;23678;48.778;9.160;2023-03-12T03:05:08;37.11;30.89;41.61;;
37833;Laerm;23678;48.778;9.160;2023-03-12T03:07:34;37.17;30.89;41.06;;
37833;Laerm;23678;48.778;9.160;2023-03-12T03:09:59;36.92;31.68;40.53;;
37833;Laerm;23678;48.778;9.160;2023-03-12T03:12:31;36.96;30.89;40.03;;
37833;Laerm;23678;48.778;9.160;2023-03-12T03:14:57;36.97;29.92;40.33;;
37833;Laerm;23678;48.778;9.160;2023-03-12T03:17:22;37.02;29.92;39.81;;
37833;Laerm;23678;48.778;9.160;2023-03-12T03:19:49;37.10;31.68;40.53;;
37833;Laerm;23678;48.778;9.160;2023-03-12T03:22:14;36.96;31.68;39.81;;
37833;Laerm;23678;48.778;9.160;2023-03-12T03:24:39;36.92;26.91;40.03;;
37833;Laerm;23678;48.778;9.160;2023-03-12T03:27:05;37.03;30.89;40.23;;
37833;Laerm;23678;48.778;9.160;2023-03-12T03:29:30;36.95;29.92;39.70;;
37833;Laerm;23678;48.778;9.160;2023-03-12T03:31:55;36.94;31.68;39.70;;
37833;Laerm;23678;48.778;9.160;2023-03-12T03:34:21;36.92;30.89;39.81;;
37833;Laerm;23678;48.778;9.160;2023-03-12T03:36:46;36.91;30.89;39.58;;
37833;Laerm;23678;48.778;9.160;2023-03-12T03:39:11;36.89;28.67;39.68;;
37833;Laerm;23678;48.778;9.160;2023-03-12T03:41:37;36.97;30.89;39.81;;
37833;Laerm;23678;48.778;9.160;2023-03-12T03:44:02;37.79;32.35;42.71;;
37833;Laerm;23678;48.778;9.160;2023-03-12T03:46:29;36.95;30.89;40.23;;
37833;Laerm;23678;48.778;9.160;2023-03-12T03:48:54;36.94;30.89;39.81;;
37833;Laerm;23678;48.778;9.160;2023-03-12T03:51:20;36.97;30.89;40.62;;
37833;Laerm;23678;48.778;9.160;2023-03-12T03:53:45;37.05;31.68;40.54;;
37833;Laerm;23678;48.778;9.160;2023-03-12T03:56:12;37.22;30.89;48.64;;
37833;Laerm;23678;48.778;9.160;2023-03-12T03:58:37;37.63;30.89;47.46;;
37833;Laerm;23678;48.778;9.160;2023-03-12T04:01:03;37.66;30.89;46.55;;
37833;Laerm;23678;48.778;9.160;2023-03-12T04:03:28;37.42;31.68;44.92;;
37833;Laerm;23678;48.778;9.160;2023-03-12T04:05:55;38.22;32.35;47.30;;
37833;Laerm;23678;48.778;9.160;2023-03-12T04:08:20;37.82;31.68;47.59;;
37833;Laerm;23678;48.778;9.160;2023-03-12T04:10:45;37.99;29.92;48.94;;
37833;Laerm;23678;48.778;9.160;2023-03-12T04:13:11;38.20;31.68;48.34;;
37833;Laerm;23678;48.778;9.160;2023-03-12T04:15:36;37.95;31.68;49.75;;
37833;Laerm;23678;48.778;9.160;2023-03-12T04:18:01;38.31;29.92;51.10;;
37833;Laerm;23678;48.778;9.160;2023-03-12T04:20:27;39.38;31.68;51.17;;
37833;Laerm;23678;48.778;9.160;2023-03-12T04:22:52;38.39;31.68;50.10;;
37833;Laerm;23678;48.778;9.160;2023-03-12T04:28:05;38.11;31.68;50.59;;
37833;Laerm;23678;48.778;9.160;2023-03-12T04:30:30;37.87;30.89;48.80;;
37833;Laerm;23678;48.778;9.160;2023-03-12T04:32:55;38.02;30.89;50.11;;
37833;Laerm;23678;48.778;9.160;2023-03-12T04:35:21;38.07;29.92;50.34;;
37833;Laerm;23678;48.778;9.160;2023-03-12T04:37:46;38.22;29.92;51.03;;
37833;Laerm;23678;48.778;9.160;2023-03-12T04:40:11;38.40;31.68;49.82;;
37833;Laerm;23678;48.778;9.160;2023-03-12T04:42:38;37.82;30.89;49.19;;
37833;Laerm;23678;48.778;9.160;2023-03-12T04:45:04;38.03;32.35;45.01;;
37833;Laerm;23678;48.778;9.160;2023-03-12T04:47:31;38.04;30.89;45.07;;
37833;Laerm;23678;48.778;9.160;2023-03-12T04:49:56;38.36;32.00;44.83;;
37833;Laerm;23678;48.778;9.160;2023-03-12T04:52:21;38.40;32.93;43.94;;
37833;Laerm;23678;48.778;9.160;2023-03-12T04:54:47;38.09;30.89;45.86;;
37833;Laerm;23678;48.778;9.160;2023-03-12T04:57:12;37.86;30.89;45.69;;
37833;Laerm;23678;48.778;9.160;2023-03-12T04:59:37;37.94;28.67;45.01;;
37833;Laerm;23678;48.778;9.160;2023-03-12T05:02:03;38.07;32.93;44.07;;
37833;Laerm;23678;48.778;9.160;2023-03-12T05:04:28;40.93;31.68;53.12;;
37833;Laerm;23678;48.778;9.160;2023-03-12T05:06:53;41.40;31.68;52.51;;
37833;Laerm;23678;48.778;9.160;2023-03-12T05:09:19;41.48;29.92;52.63;;
37833;Laerm;23678;48.778;9.160;2023-03-12T05:11:44;41.50;32.35;53.75;;
37833;Laerm;23678;48.778;9.160;2023-03-12T05:14:10;40.21;32.35;51.82;;
37833;Laerm;23678;48.778;9.160;2023-03-12T05:16:36;40.75;31.68;52.33;;
37833;Laerm;23678;48.778;9.160;2023-03-12T05:19:02;40.85;32.35;51.76;;
37833;Laerm;23678;48.778;9.160;2023-03-12T05:21:28;38.39;30.89;49.44;;
37833;Laerm;23678;48.778;9.160;2023-03-12T05:23:53;39.90;31.68;45.20;;
37833;Laerm;23678;48.778;9.160;2023-03-12T05:26:23;37.16;30.89;40.62;;
37833;Laerm;23678;48.778;9.160;2023-03-12T05:28:48;36.91;31.68;39.70;;
37833;Laerm;23678;48.778;9.160;2023-03-12T05:31:14;37.15;30.89;45.20;;
37833;Laerm;23678;48.778;9.160;2023-03-12T05:33:40;36.85;31.68;40.03;;
37833;Laerm;23678;48.778;9.160;2023-03-12T05:36:05;37.16;30.89;43.44;;
37833;Laerm;23678;48.778;9.160;2023-03-12T05:38:31;36.88;30.89;41.30;;
37833;Laerm;23678;48.778;9.160;2023-03-12T05:40:57;37.09;29.92;47.20;;
37833;Laerm;23678;48.778;9.160;2023-03-12T05:43:23;36.98;30.89;50.53;;
37833;Laerm;23678;48.778;9.160;2023-03-12T05:45:49;37.01;31.68;40.62;;
37833;Laerm;23678;48.778;9.160;2023-03-12T05:48:14;36.96;29.92;39.70;;
37833;Laerm;23678;48.778;9.160;2023-03-12T05:50:39;37.23;32.35;41.48;;
37833;Laerm;23678;48.778;9.160;2023-03-12T05:53:05;37.23;32.93;40.89;;
37833;Laerm;23678;48.778;9.160;2023-03-12T05:58:34;37.19;28.67;41.46;;
37833;Laerm;23678;48.778;9.160;2023-03-12T06:00:59;37.13;31.68;42.03;;
37833;Laerm;23678;48.778;9.160;2023-03-12T06:03:25;37.25;32.35;43.04;;
37833;Laerm;23678;48.778;9.160;2023-03-12T06:05:50;37.66;32.35;42.16;;
37833;Laerm;23678;48.778;9.160;2023-03-12T06:08:19;37.07;32.35;40.23;;
37833;Laerm;23678;48.778;9.160;2023-03-12T06:10:45;39.02;32.93;44.39;;
37833;Laerm;23678;48.778;9.160;2023-03-12T06:13:10;37.36;31.68;40.96;;
37833;Laerm;23678;48.778;9.160;2023-03-12T06:15:35;37.29;31.68;49.51;;
37833;Laerm;23678;48.778;9.160;2023-03-12T06:18:01;37.26;30.89;42.29;;
37833;Laerm;23678;48.778;9.160;2023-03-12T06:20:26;37.92;32.35;51.35;;
37833;Laerm;23678;48.778;9.160;2023-03-12T06:22:51;38.18;32.93;43.54;;
37833;Laerm;23678;48.778;9.160;2023-03-12T06:25:17;37.33;31.68;40.03;;
37833;Laerm;23678;48.778;9.160;2023-03-12T06:27:47;37.65;32.93;41.30;;
37833;Laerm;23678;48.778;9.160;2023-03-12T06:30:13;37.88;33.44;42.88;;
37833;Laerm;23678;48.778;9.160;2023-03-12T06:32:38;37.88;32.35;43.04;;
37833;Laerm;23678;48.778;9.160;2023-03-12T06:35:04;37.63;32.93;40.89;;
37833;Laerm;23678;48.778;9.160;2023-03-12T06:37:30;38.53;33.90;43.72;;
37833;Laerm;23678;48.778;9.160;2023-03-12T06:39:55;38.80;33.44;43.14;;
37833;Laerm;23678;48.778;9.160;2023-03-12T06:42:21;38.79;33.44;43.90;;
37833;Laerm;23678;48.778;9.160;2023-03-12T06:44:52;37.94;33.44;43.19;;
37833;Laerm;23678;48.778;9.160;2023-03-12T06:47:18;38.31;32.35;42.71;;
37833;Laerm;23678;48.778;9.160;2023-03-12T06:49:43;38.37;34.69;45.07;;
37833;Laerm;23678;48.778;9.160;2023-03-12T06:52:08;38.87;34.31;43.14;;
37833;Laerm;23678;48.778;9.160;2023-03-12T06:54:34;37.86;32.35;41.30;;
37833;Laerm;23678;48.778;9.160;2023-03-12T06:56:59;37.70;33.44;46.10;;
37833;Laerm;23678;48.778;9.160;2023-03-12T06:59:25;38.93;33.44;52.81;;
37833;Laerm;23678;48.778;9.160;2023-03-12T07:01:50;39.30;34.69;53.81;;
37833;Laerm;23678;48.778;9.160;2023-03-12T07:04:16;39.14;33.90;51.57;;
37833;Laerm;23678;48.778;9.160;2023-03-12T07:06:41;38.67;33.90;49.77;;
37833;Laerm;23678;48.778;9.160;2023-03-12T07:09:07;39.86;35.36;54.01;;
37833;Laerm;23678;48.778;9.160;2023-03-12T07:11:32;39.78;35.94;61.00;;
37833;Laerm;23678;48.778;9.160;2023-03-12T07:13:57;40.21;35.04;52.49;;
37833;Laerm;23678;48.778;9.160;2023-03-12T07:16:23;39.62;34.31;51.01;;
37833;Laerm;23678;48.778;9.160;2023-03-12T07:18:48;38.35;34.31;47.24;;
37833;Laerm;23678;48.778;9.160;2023-03-12T07:21:14;38.90;34.31;43.63;;
37833;Laerm;23678;48.778;9.160;2023-03-12T07:23:46;38.30;34.69;41.68;;
37833;Laerm;23678;48.778;9.160;2023-03-12T07:26:12;38.47;34.31;53.75;;
37833;Laerm;23678;48.778;9.160;2023-03-12T07:28:37;38.30;32.93;43.99;;
37833;Laerm;23678;48.778;9.160;2023-03-12T07:31:02;40.41;35.36;57.51;;
37833;Laerm;23678;48.778;9.160;2023-03-12T07:33:28;41.84;34.31;55.41;;
37833;Laerm;23678;48.778;9.160;2023-03-12T07:35:53;38.62;33.90;44.69;;
37833;Laerm;23678;48.778;9.160;2023-03-12T07:38:19;38.90;33.90;47.81;;
37833;Laerm;23678;48.778;9.160;2023-03-12T07:40:44;39.47;32.93;46.56;;
37833;Laerm;23678;48.778;9.160;2023-03-12T07:43:13;39.70;33.44;51.96;;
37833;Laerm;23678;48.778;9.160;2023-03-12T07:45:39;38.32;33.90;43.72;;
37833;Laerm;23678;48.778;9.160;2023-03-12T07:48:07;38.29;34.31;46.02;;
37833;Laerm;23678;48.778;9.160;2023-03-12T07:50:33;38.10;33.44;44.69;;
37833;Laerm;23678;48.778;9.160;2023-03-12T07:52:59;38.64;32.93;43.68;;
37833;Laerm;23678;48.778;9.160;2023-03-12T07:55:24;39.21;34.31;55.10;;
37833;Laerm;23678;48.778;9.160;2023-03-12T07:57:49;39.51;35.04;49.16;;
37833;Laerm;23678;48.778;9.160;2023-03-12T08:00:15;39.57;34.31;48.99;;
37833;Laerm;23678;48.778;9.160;2023-03-12T08:02:41;38.34;33.90;52.59;;
37833;Laerm;23678;48.778;9.160;2023-03-12T08:05:06;38.22;34.31;41.46;;
37833;Laerm;23678;48.778;9.160;2023-03-12T08:07:32;42.59;34.31;58.99;;
37833;Laerm;23678;48.778;9.160;2023-03-12T08:09:59;38.23;34.31;45.01;;
37833;Laerm;23678;48.778;9.160;2023-03-12T08:12:24;39.85;33.97;48.37;;
37833;Laerm;23678;48.778;9.160;2023-03-12T08:14:50;38.44;33.44;43.04;;
37833;Laerm;23678;48.778;9.160;2023-03-12T08:17:15;39.72;33.90;48.23;;
37833;Laerm;23678;48.778;9.160;2023-03-12T08:19:41;44.52;36.91;59.61;;
37833;Laerm;23678;48.778;9.160;2023-03-12T08:22:06;41.28;37.52;49.04;;
37833;Laerm;23678;48.778;9.160;2023-03-12T08:24:32;40.61;34.69;52.47;;
37833;Laerm;23678;48.778;9.160;2023-03-12T08:26:57;39.68;33.90;48.67;;
37833;Laerm;23678;48.778;9.160;2023-03-12T08:29:22;39.43;35.36;44.43;;
37833;Laerm;23678;48.778;9.160;2023-03-12T08:31:48;39.34;34.69;54.08;;
37833;Laerm;23678;48.778;9.160;2023-03-12T08:34:13;39.63;33.90;43.81;;
37833;Laerm;23678;48.778;9.160;2023-03-12T08:36:38;39.49;34.31;56.97;;
37833;Laerm;23678;48.778;9.160;2023-03-12T08:39:04;42.11;35.04;52.75;;
37833;Laerm;23678;48.778;9.160;2023-03-12T08:41:31;41.55;38.05;47.76;;
37833;Laerm;23678;48.778;9.160;2023-03-12T08:43:56;42.11;37.32;53.84;;
37833;Laerm;23678;48.778;9.160;2023-03-12T08:46:22;42.11;35.36;52.79;;
37833;Laerm;23678;48.778;9.160;2023-03-12T08:48:47;42.24;34.31;56.80;;
37833;Laerm;23678;48.778;9.160;2023-03-12T08:51:12;40.32;35.66;51.55;;
37833;Laerm;23678;48.778;9.160;2023-03-12T08:53:38;40.54;35.01;44.35;;
37833;Laerm;23678;48.778;9.160;2023-03-12T08:56:04;42.09;37.32;50.18;;
37833;Laerm;23678;48.778;9.160;2023-03-12T08:58:30;41.79;37.32;45.99;;
37833;Laerm;23678;48.778;9.160;2023-03-12T09:00:55;41.36;35.04;51.40;;
37833;Laerm;23678;48.778;9.160;2023-03-12T09:03:21;39.35;35.36;45.83;;
37833;Laerm;23678;48.778;9.160;2023-03-12T09:05:47;40.31;35.36;51.98;;
37833;Laerm;23678;48.778;9.160;2023-03-12T09:08:12;39.75;35.04;50.02;;
37833;Laerm;23678;48.778;9.160;2023-03-12T09:10:38;40.18;33.90;50.00;;
37833;Laerm;23678;48.778;9.160;2023-03-12T09:13:03;42.26;35.04;57.14;;
37833;Laerm;23678;48.778;9.160;2023-03-12T09:15:29;39.12;35.04;44.51;;
37833;Laerm;23678;48.778;9.160;2023-03-12T09:17:55;39.92;34.69;49.49;;
37833;Laerm;23678;48.778;9.160;2023-03-12T09:20:20;38.86;35.04;42.22;;
37833;Laerm;23678;48.778;9.160;2023-03-12T09:22:46;38.94;35.01;45.42;;
37833;Laerm;23678;48.778;9.160;2023-03-12T09:25:12;39.37;35.04;54.73;;
37833;Laerm;23678;48.778;9.160;2023-03-12T09:27:38;38.74;35.04;47.42;;
37833;Laerm;23678;48.778;9.160;2023-03-12T09:30:04;39.69;35.31;45.89;;
37833;Laerm;23678;48.778;9.160;2023-03-12T09:32:30;40.06;35.36;47.04;;
37833;Laerm;23678;48.778;9.160;2023-03-12T09:34:56;39.33;35.04;49.10;;
37833;Laerm;23678;48.778;9.160;2023-03-12T09:37:21;41.35;35.31;56.97;;
37833;Laerm;23678;48.778;9.160;2023-03-12T09:39:48;41.81;35.66;54.81;;
37833;Laerm;23678;48.778;9.160;2023-03-12T09:42:15;40.69;35.36;50.83;;
37833;Laerm;23678;48.778;9.160;2023-03-12T09:44:45;39.34;35.04;44.19;;
37833;Laerm;23678;48.778;9.160;2023-03-12T09:47:32;41.01;35.36;50.77;;
37833;Laerm;23678;48.778;9.160;2023-03-12T09:52:43;41.06;35.36;48.43;;
37833;Laerm;23678;48.778;9.160;2023-03-12T09:55:12;40.05;34.31;52.46;;
37833;Laerm;23678;48.778;9.160;2023-03-12T09:57:41;40.28;35.04;52.91;;
37833;Laerm;23678;48.778;9.160;2023-03-12T10:00:18;39.58;35.36;48.55;;
37833;Laerm;23678;48.778;9.160;2023-03-12T10:02:52;40.45;35.66;47.59;;
37833;Laerm;23678;48.778;9.160;2023-03-12T10:05:26;40.76;35.94;52.26;;
37833;Laerm;23678;48.778;9.160;2023-03-12T10:08:30;40.01;35.36;48.18;;
37833;Laerm;23678;48.778;9.160;2023-03-12T10:11:07;41.07;35.36;51.21;;
37833;Laerm;23678;48.778;9.160;2023-03-12T10:28:31;39.76;34.69;46.80;;
37833;Laerm;23678;48.778;9.160;2023-03-12T10:30:59;40.79;34.34;48.57;;
37833;Laerm;23678;48.778;9.160;2023-03-12T10:33:30;41.42;35.66;48.94;;
37833;Laerm;23678;48.778;9.160;2023-03-12T10:38:53;39.84;35.36;48.73;;
37833;Laerm;23678;48.778;9.160;2023-03-12T10:41:20;40.04;33.44;47.20;;
37833;Laerm;23678;48.778;9.160;2023-03-12T10:43:51;39.42;34.34;49.00;;
37833;Laerm;23678;48.778;9.160;2023-03-12T10:46:36;41.88;35.36;51.37;;
37833;Laerm;23678;48.778;9.160;2023-03-12T10:54:46;38.33;33.44;43.24;;
37833;Laerm;23678;48.778;9.160;2023-03-12T10:57:12;38.69;34.31;44.54;;
37833;Laerm;23678;48.778;9.160;2023-03-12T10:59:51;40.08;35.59;45.48;;
37833;Laerm;23678;48.778;9.160;2023-03-12T11:06:02;43.09;36.45;55.88;;
37833;Laerm;23678;48.778;9.160;2023-03-12T11:08:03;39.02;34.69;42.22;;
37833;Laerm;23678;48.778;9.160;2023-03-12T11:11:02;41.45;35.66;52.30;;
37833;Laerm;23678;48.778;9.160;2023-03-12T14:38:46;39.00;33.44;44.62;;
37833;Laerm;23678;48.778;9.160;2023-03-12T14:41:28;39.60;33.44;48.52;;
37833;Laerm;23678;48.778;9.160;2023-03-12T14:44:02;40.03;32.93;49.69;;
37833;Laerm;23678;48.778;9.160;2023-03-12T14:46:32;39.34;32.93;46.78;;
37833;Laerm;23678;48.778;9.160;2023-03-12T14:48:57;39.05;32.93;47.48;;
37833;Laerm;23678;48.778;9.160;2023-03-12T14:53:48;39.05;33.90;44.69;;
37833;Laerm;23678;48.778;9.160;2023-03-12T14:56:21;41.09;34.31;55.87;;
37833;Laerm;23678;48.778;9.160;2023-03-12T14:58:51;40.34;33.44;52.75;;
37833;Laerm;23678;48.778;9.160;2023-03-12T15:01:19;38.84;32.93;47.59;;
37833;Laerm;23678;48.778;9.160;2023-03-12T15:03:48;39.91;32.93;55.55;;
37833;Laerm;23678;48.778;9.160;2023-03-12T15:06:17;39.16;32.35;46.40;;
37833;Laerm;23678;48.778;9.160;2023-03-12T15:08:44;39.97;33.44;52.11;;
37833;Laerm;23678;48.778;9.160;2023-03-12T15:11:10;39.11;32.93;55.24;;
37833;Laerm;23678;48.778;9.160;2023-03-12T15:13:36;39.14;31.68;45.27;;
37833;Laerm;23678;48.778;9.160;2023-03-12T15:16:02;42.18;33.44;56.64;;
37833;Laerm;23678;48.778;9.160;2023-03-12T15:18:28;40.90;32.35;56.48;;
37833;Laerm;23678;48.778;9.160;2023-03-12T15:20:54;41.35;33.90;57.48;;
37833;Laerm;23678;48.778;9.160;2023-03-12T15:23:21;39.91;33.90;49.75;;
37833;Laerm;23678;48.778;9.160;2023-03-12T15:25:47;38.88;32.35;49.32;;
37833;Laerm;23678;48.778;9.160;2023-03-12T15:28:31;40.95;33.44;51.82;;
37833;Laerm;23678;48.778;9.160;2023-03-12T15:31:04;39.90;33.44;48.12;;
37833;Laerm;23678;48.778;9.160;2023-03-12T15:33:31;39.81;31.68;49.62;;
37833;Laerm;23678;48.778;9.160;2023-03-12T15:35:58;38.49;32.93;45.36;;
37833;Laerm;23678;48.778;9.160;2023-03-12T15:38:24;38.02;32.35;46.48;;
37833;Laerm;23678;48.778;9.160;2023-03-12T15:40:50;39.10;32.35;45.97;;
37833;Laerm;23678;48.778;9.160;2023-03-12T15:43:19;38.64;31.68;46.23;;
37833;Laerm;23678;48.778;9.160;2023-03-12T15:45:45;39.01;32.93;47.42;;
37833;Laerm;23678;48.778;9.160;2023-03-12T15:48:14;39.69;32.35;45.42;;
37833;Laerm;23678;48.778;9.160;2023-03-12T15:50:41;39.25;32.93;57.59;;
37833;Laerm;23678;48.778;9.160;2023-03-12T15:55:35;40.45;33.44;46.76;;
37833;Laerm;23678;48.778;9.160;2023-03-12T15:58:01;40.37;33.90;51.64;;
37833;Laerm;23678;48.778;9.160;2023-03-12T16:00:31;39.72;31.68;50.51;;
37833;Laerm;23678;48.778;9.160;2023-03-12T16:03:05;39.39;30.89;48.60;;
37833;Laerm;23678;48.778;9.160;2023-03-12T16:05:39;39.74;33.44;50.45;;
37833;Laerm;23678;48.778;9.160;2023-03-12T16:08:17;39.10;32.35;48.03;;
37833;Laerm;23678;48.778;9.160;2023-03-12T16:10:45;38.45;31.68;44.35;;
37833;Laerm;23678;48.778;9.160;2023-03-12T16:13:14;38.55;31.68;45.66;;
37833;Laerm;23678;48.778;9.160;2023-03-12T16:15:40;39.29;33.44;47.18;;
37833;Laerm;23678;48.778;9.160;2023-03-12T16:18:13;39.64;33.44;47.20;;
37833;Laerm;23678;48.778;9.160;2023-03-12T16:20:39;39.29;33.44;53.15;;
37833;Laerm;23678;48.778;9.160;2023-03-12T16:23:04;39.56;32.93;49.81;;
37833;Laerm;23678;48.778;9.160;2023-03-12T16:25:29;38.12;32.93;45.04;;
37833;Laerm;23678;48.778;9.160;2023-03-12T16:27:55;38.70;34.31;43.68;;
37833;Laerm;23678;48.778;9.160;2023-03-12T16:30:34;39.60;32.93;46.82;;
37833;Laerm;23678;48.778;9.160;2023-03-12T16:33:01;40.25;33.44;58.34;;
37833;Laerm;23678;48.778;9.160;2023-03-12T16:35:27;40.75;32.93;61.40;;
37833;Laerm;23678;48.778;9.160;2023-03-12T16:37:53;40.40;33.90;49.08;;
37833;Laerm;23678;48.778;9.160;2023-03-12T16:40:18;40.95;30.89;55.54;;
37833;Laerm;23678;48.778;9.160;2023-03-12T16:42:45;39.50;32.93;49.33;;
37833;Laerm;23678;48.778;9.160;2023-03-12T16:45:12;39.23;32.35;46.69;;
37833;Laerm;23678;48.778;9.160;2023-03-12T16:47:38;42.78;32.93;57.07;;
37833;Laerm;23678;48.778;9.160;2023-03-12T16:50:23;43.77;39.08;50.17;;
37833;Laerm;23678;48.778;9.160;2023-03-12T16:52:48;41.30;34.31;49.46;;
37833;Laerm;23678;48.778;9.160;2023-03-12T16:55:20;40.39;35.04;48.46;;
37833;Laerm;23678;48.778;9.160;2023-03-12T16:57:59;39.90;33.44;48.31;;
37833;Laerm;23678;48.778;9.160;2023-03-12T17:00:26;38.89;34.31;44.39;;
37833;Laerm;23678;48.778;9.160;2023-03-12T17:02:52;45.87;34.69;52.35;;
37833;Laerm;23678;48.778;9.160;2023-03-12T17:05:25;47.26;43.39;52.60;;
37833;Laerm;23678;48.778;9.160;2023-03-12T17:07:51;47.58;39.08;56.67;;
37833;Laerm;23678;48.778;9.160;2023-03-12T17:10:16;39.75;33.44;49.41;;
37833;Laerm;23678;48.778;9.160;2023-03-12T17:12:42;40.53;34.34;48.99;;
37833;Laerm;23678;48.778;9.160;2023-03-12T17:15:12;39.26;32.35;50.43;;
37833;Laerm;23678;48.778;9.160;2023-03-12T17:17:39;39.76;34.31;48.00;;
37833;Laerm;23678;48.778;9.160;2023-03-12T17:20:04;41.54;33.90;54.59;;
37833;Laerm;23678;48.778;9.160;2023-03-12T17:22:33;41.63;34.31;56.39;;
37833;Laerm;23678;48.778;9.160;2023-03-12T17:24:59;40.35;33.44;51.92;;
37833;Laerm;23678;48.778;9.160;2023-03-12T17:27:24;39.69;32.93;48.25;;
37833;Laerm;23678;48.778;9.160;2023-03-12T17:29:49;39.79;32.35;52.53;;
37833;Laerm;23678;48.778;9.160;2023-03-12T17:32:15;39.12;33.44;44.47;;
37833;Laerm;23678;48.778;9.160;2023-03-12T17:34:40;39.88;32.93;46.05;;
37833;Laerm;23678;48.778;9.160;2023-03-12T17:37:05;40.33;34.31;46.45;;
37833;Laerm;23678;48.778;9.160;2023-03-12T17:39:32;40.41;33.44;53.05;;
37833;Laerm;23678;48.778;9.160;2023-03-12T17:41:57;40.14;34.31;49.64;;
37833;Laerm;23678;48.778;9.160;2023-03-12T17:44:23;40.66;34.69;52.02;;
37833;Laerm;23678;48.778;9.160;2023-03-12T17:46:49;42.73;35.66;53.30;;
37833;Laerm;23678;48.778;9.160;2023-03-12T17:49:15;41.17;32.93;55.45;;
37833;Laerm;23678;48.778;9.160;2023-03-12T17:51:40;38.82;33.44;42.88;;
37833;Laerm;23678;48.778;9.160;2023-03-12T17:54:05;40.28;33.90;49.50;;
37833;Laerm;23678;48.778;9.160;2023-03-12T17:56:31;41.11;33.90;50.01;;